createdAt,value
2022-11-23T00:01:38.209Z,74.52
2022-11-23T00:04:05.639Z,74.58
2022-11-23T00:06:32.438Z,74.83
2022-11-23T00:08:59.195Z,75.11
2022-11-23T00:11:26.113Z,74.80
2022-11-23T00:13:52.722Z,75.27
2022-11-23T00:16:20.333Z,75.56
2022-11-23T00:18:46.984Z,75.16
2022-11-23T00:21:16.816Z,75.06
2022-11-23T00:23:43.811Z,74.96
2022-11-23T00:26:10.470Z,75.20
2022-11-23T00:28:40.864Z,75.55
2022-11-23T00:31:15.929Z,75.03
2022-11-23T00:33:42.471Z,75.40
2022-11-23T00:36:13.297Z,75.80
2022-11-23T00:38:39.912Z,75.80
2022-11-23T00:41:07.177Z,75.98
2022-11-23T00:43:33.874Z,75.47
2022-11-23T00:46:04.417Z,75.41
2022-11-23T00:48:30.999Z,75.35
2022-11-23T00:50:57.472Z,76.17
2022-11-23T00:53:24.161Z,75.71
2022-11-23T00:55:51.522Z,75.94
2022-11-23T00:58:18.034Z,76.19
2022-11-23T01:00:44.711Z,75.56
2022-11-23T01:03:11.272Z,76.01
2022-11-23T01:05:37.823Z,76.04
2022-11-23T01:08:04.541Z,75.57
2022-11-23T01:10:31.024Z,75.85
2022-11-23T01:16:24.466Z,76.15
2022-11-23T01:18:54.691Z,76.00
2022-11-23T01:21:21.205Z,75.95
2022-11-23T01:23:47.714Z,75.54
2022-11-23T01:26:14.227Z,75.98
2022-11-23T01:28:40.823Z,75.91
2022-11-23T01:31:08.523Z,75.57
2022-11-23T01:33:35.045Z,76.00
2022-11-23T01:36:01.799Z,75.98
2022-11-23T01:38:28.317Z,75.45
2022-11-23T01:40:54.820Z,75.94
2022-11-23T01:43:21.319Z,75.90
2022-11-23T01:45:55.988Z,75.81
2022-11-23T01:48:24.261Z,76.01
2022-11-23T01:50:51.822Z,75.56
2022-11-23T01:53:18.515Z,76.13
2022-11-23T01:55:45.985Z,76.37
2022-11-23T01:58:12.926Z,76.29
2022-11-23T02:00:39.509Z,76.79
2022-11-23T02:03:06.492Z,76.92
2022-11-23T02:05:40.745Z,76.66
2022-11-23T02:08:07.204Z,77.24
2022-11-23T02:10:33.917Z,76.75
2022-11-23T02:13:01.493Z,76.20
2022-11-23T02:15:28.135Z,76.99
2022-11-23T02:17:54.622Z,76.65
2022-11-23T02:20:21.233Z,76.92
2022-11-23T02:22:47.742Z,76.51
2022-11-23T02:25:16.554Z,76.52
2022-11-23T02:27:46.958Z,76.72
2022-11-23T02:30:13.785Z,76.33
2022-11-23T02:32:40.270Z,77.03
2022-11-23T02:35:06.833Z,77.01
2022-11-23T02:37:33.311Z,76.95
2022-11-23T02:39:59.797Z,77.64
2022-11-23T02:42:26.633Z,77.18
2022-11-23T02:44:59.385Z,77.24
2022-11-23T02:47:25.907Z,77.04
2022-11-23T02:49:52.435Z,77.08
2022-11-23T02:52:18.916Z,77.09
2022-11-23T02:54:45.362Z,76.96
2022-11-23T02:57:11.944Z,77.41
2022-11-23T02:59:38.383Z,77.46
2022-11-23T03:02:04.886Z,77.26
2022-11-23T03:07:59.629Z,76.86
2022-11-23T03:10:26.118Z,76.97
2022-11-23T03:12:56.369Z,77.02
2022-11-23T03:15:23.199Z,77.10
2022-11-23T03:17:49.703Z,76.97
2022-11-23T03:20:16.604Z,76.99
2022-11-23T03:22:43.072Z,76.91
2022-11-23T03:25:09.636Z,77.24
2022-11-23T03:27:37.452Z,77.54
2022-11-23T03:30:04.196Z,76.99
2022-11-23T03:32:30.746Z,77.29
2022-11-23T03:34:57.495Z,77.68
2022-11-23T03:37:25.457Z,77.81
2022-11-23T03:39:52.001Z,77.60
2022-11-23T03:42:18.520Z,77.50
2022-11-23T03:44:45.020Z,77.85
2022-11-23T03:47:12.191Z,77.49
2022-11-23T03:49:38.634Z,77.63
2022-11-23T03:52:05.220Z,77.57
2022-11-23T03:54:31.816Z,78.16
2022-11-23T03:56:58.265Z,78.33
2022-11-23T03:59:24.776Z,78.02
2022-11-23T04:01:51.264Z,78.42
2022-11-23T04:04:19.057Z,78.43
2022-11-23T04:06:45.567Z,78.06
2022-11-23T04:09:12.550Z,78.07
2022-11-23T04:11:39.134Z,78.00
2022-11-23T04:14:05.603Z,77.71
2022-11-23T04:16:32.104Z,77.94
2022-11-23T04:18:58.590Z,78.29
2022-11-23T04:21:25.042Z,78.28
2022-11-23T04:23:51.595Z,78.07
2022-11-23T04:26:18.061Z,77.66
2022-11-23T04:28:44.530Z,77.92
2022-11-23T04:31:11.137Z,77.92
2022-11-23T04:33:37.604Z,78.24
2022-11-23T04:36:04.205Z,77.91
2022-11-23T04:38:30.801Z,78.27
2022-11-23T04:40:57.264Z,78.10
2022-11-23T04:43:23.833Z,78.02
2022-11-23T04:45:50.381Z,77.73
2022-11-23T04:48:16.864Z,77.65
2022-11-23T04:50:46.651Z,77.62
2022-11-23T04:53:13.504Z,77.98
2022-11-23T04:55:39.956Z,78.18
2022-11-23T04:58:06.453Z,78.32
2022-11-23T05:00:32.901Z,78.42
2022-11-23T05:03:00.605Z,78.20
2022-11-23T05:05:27.179Z,78.59
2022-11-23T05:07:53.623Z,77.90
2022-11-23T05:10:20.114Z,78.06
2022-11-23T05:12:46.618Z,78.44
2022-11-23T05:15:14.386Z,78.40
2022-11-23T05:17:40.873Z,78.14
2022-11-23T05:20:07.758Z,78.11
2022-11-23T05:22:34.255Z,78.29
2022-11-23T05:25:00.794Z,78.71
2022-11-23T05:27:27.258Z,78.10
2022-11-23T05:29:53.769Z,78.35
2022-11-23T05:32:20.254Z,78.35
2022-11-23T05:34:46.707Z,78.55
2022-11-23T05:37:13.209Z,78.48
2022-11-23T05:39:39.656Z,78.29
2022-11-23T05:42:06.146Z,78.25
2022-11-23T05:44:32.613Z,78.59
2022-11-23T05:46:59.209Z,78.52
2022-11-23T05:49:25.649Z,78.63
2022-11-23T05:51:52.144Z,79.22
2022-11-23T05:54:18.683Z,78.79
2022-11-23T05:56:45.671Z,78.79
2022-11-23T05:59:12.216Z,79.44
2022-11-23T06:01:38.616Z,79.01
2022-11-23T06:04:06.860Z,78.65
2022-11-23T06:06:33.432Z,78.30
2022-11-23T06:08:59.932Z,78.48
2022-11-23T06:11:26.368Z,78.78
2022-11-23T06:13:52.871Z,78.57
2022-11-23T06:16:19.349Z,78.93
2022-11-23T06:18:46.247Z,79.31
2022-11-23T06:21:12.903Z,79.00
2022-11-23T06:23:39.682Z,79.16
2022-11-23T06:26:06.149Z,79.23
2022-11-23T06:28:33.278Z,79.09
2022-11-23T06:31:03.512Z,79.27
2022-11-23T06:33:29.930Z,79.03
2022-11-23T06:35:57.088Z,78.86
2022-11-23T06:38:23.536Z,79.15
2022-11-23T06:40:49.960Z,78.48
2022-11-23T06:43:16.503Z,78.58
2022-11-23T06:45:42.929Z,78.19
2022-11-23T06:48:09.665Z,78.11
2022-11-23T06:50:36.147Z,77.99
2022-11-23T06:53:02.807Z,78.24
2022-11-23T06:55:29.236Z,78.25
2022-11-23T06:57:56.473Z,78.46
2022-11-23T07:00:22.912Z,78.10
2022-11-23T07:02:53.047Z,78.49
2022-11-23T07:05:19.641Z,78.25
2022-11-23T07:07:46.163Z,78.25
2022-11-23T07:10:13.603Z,78.77
2022-11-23T07:12:40.875Z,78.59
2022-11-23T07:15:07.738Z,78.73
2022-11-23T07:17:38.219Z,79.02
2022-11-23T07:20:04.936Z,79.08
2022-11-23T07:22:31.370Z,79.07
2022-11-23T07:24:58.011Z,79.30
2022-11-23T07:27:25.201Z,79.18
2022-11-23T07:29:51.850Z,79.21
2022-11-23T07:32:18.361Z,79.22
2022-11-23T07:34:45.345Z,79.07
2022-11-23T07:37:11.804Z,78.54
2022-11-23T07:39:56.168Z,79.03
2022-11-23T07:42:33.512Z,79.03
2022-11-23T07:45:00.548Z,79.26
2022-11-23T07:47:27.056Z,79.14
2022-11-23T07:49:53.513Z,79.22
2022-11-23T07:52:19.957Z,78.62
2022-11-23T07:54:46.436Z,78.42
2022-11-23T07:57:12.886Z,78.32
2022-11-23T07:59:39.855Z,78.51
2022-11-23T08:02:06.643Z,78.78
2022-11-23T08:04:33.382Z,78.31
2022-11-23T08:07:00.887Z,78.60
2022-11-23T08:09:27.318Z,78.45
2022-11-23T08:11:53.783Z,77.99
2022-11-23T08:14:20.246Z,77.89
2022-11-23T08:16:50.961Z,77.94
2022-11-23T08:19:17.532Z,78.08
2022-11-23T08:21:44.567Z,77.82
2022-11-23T08:24:11.325Z,77.36
2022-11-23T08:26:37.922Z,77.34
2022-11-23T08:29:04.674Z,76.60
2022-11-23T08:31:31.348Z,76.67
2022-11-23T08:34:03.032Z,76.34
2022-11-23T08:36:30.133Z,76.82
2022-11-23T08:38:56.561Z,76.13
2022-11-23T08:41:23.042Z,75.94
2022-11-23T08:43:50.110Z,75.94
2022-11-23T08:46:16.807Z,75.21
2022-11-23T08:48:43.314Z,75.56
2022-11-23T08:51:09.896Z,76.13
2022-11-23T08:53:36.388Z,75.87
2022-11-23T08:56:03.323Z,75.49
2022-11-23T08:58:29.820Z,75.62
2022-11-23T09:00:56.372Z,75.69
2022-11-23T09:03:22.784Z,75.87
2022-11-23T09:05:51.177Z,75.91
2022-11-23T09:08:17.947Z,76.44
2022-11-23T09:10:44.418Z,76.28
2022-11-23T09:13:10.882Z,75.73
2022-11-23T09:15:37.455Z,75.26
2022-11-23T09:18:03.956Z,73.95
2022-11-23T09:20:30.762Z,73.43
2022-11-23T09:22:57.203Z,73.53
2022-11-23T09:25:23.858Z,73.33
2022-11-23T09:27:50.361Z,73.16
2022-11-23T09:30:17.072Z,73.08
2022-11-23T09:32:43.531Z,73.39
2022-11-23T09:35:09.981Z,73.19
2022-11-23T09:37:36.507Z,73.18
2022-11-23T09:40:03.306Z,73.01
2022-11-23T09:42:48.528Z,72.84
2022-11-23T09:45:19.251Z,73.06
2022-11-23T09:47:51.750Z,72.76
2022-11-23T09:50:22.249Z,72.61
2022-11-23T09:52:48.712Z,72.39
2022-11-23T09:55:18.256Z,71.77
2022-11-23T09:57:45.020Z,71.69
2022-11-23T10:00:14.881Z,72.67
2022-11-23T10:02:41.312Z,71.86
2022-11-23T10:05:07.957Z,72.11
2022-11-23T10:07:55.518Z,72.18
2022-11-23T10:10:32.334Z,72.11
2022-11-23T10:13:10.979Z,71.86
2022-11-23T10:15:42.617Z,71.89
2022-11-23T10:18:29.447Z,72.14
2022-11-23T10:20:56.725Z,72.12
2022-11-23T10:23:26.209Z,71.86
2022-11-23T10:25:52.751Z,72.48
2022-11-23T10:28:20.149Z,72.48
2022-11-23T10:30:48.110Z,72.02
2022-11-23T10:33:23.499Z,72.23
2022-11-23T10:35:49.978Z,72.38
2022-11-23T10:38:19.409Z,72.47
2022-11-23T10:41:06.325Z,72.38
2022-11-23T10:43:38.773Z,72.00
2022-11-23T10:46:23.946Z,72.15
2022-11-23T10:48:51.618Z,71.63
2022-11-23T10:51:23.225Z,72.65
2022-11-23T10:53:53.666Z,71.54
2022-11-23T10:56:20.092Z,72.14
2022-11-23T10:58:46.634Z,72.44
2022-11-23T11:01:14.281Z,72.39
2022-11-23T11:03:40.792Z,72.34
2022-11-23T11:06:08.948Z,72.82
2022-11-23T11:08:55.679Z,72.58
2022-11-23T11:11:23.840Z,72.58
2022-11-23T11:13:50.253Z,73.31
2022-11-23T11:16:21.896Z,73.67
2022-11-23T11:18:48.348Z,74.13
2022-11-23T11:21:33.520Z,73.72
2022-11-23T11:24:07.101Z,73.33
2022-11-23T11:26:33.951Z,73.36
2022-11-23T11:29:01.471Z,73.79
2022-11-23T11:31:46.631Z,74.12
2022-11-23T11:34:16.128Z,74.57
2022-11-23T11:36:48.771Z,74.35
2022-11-23T11:39:19.229Z,73.82
2022-11-23T11:41:46.136Z,74.27
2022-11-23T11:44:22.954Z,74.77
2022-11-23T11:46:51.658Z,74.17
2022-11-23T11:49:23.099Z,74.48
2022-11-23T11:52:06.623Z,74.68
2022-11-23T11:54:33.513Z,75.24
2022-11-23T11:57:02.092Z,74.75
2022-11-23T11:59:29.263Z,75.12
2022-11-23T12:02:14.007Z,74.62
2022-11-23T12:04:41.864Z,75.13
2022-11-23T12:07:10.266Z,75.24
2022-11-23T12:09:38.105Z,76.05
2022-11-23T12:12:04.965Z,75.82
2022-11-23T12:14:31.863Z,76.45
2022-11-23T12:17:30.851Z,76.47
2022-11-23T12:19:51.418Z,77.21
2022-11-23T12:22:18.315Z,77.23
2022-11-23T12:25:23.694Z,77.14
2022-11-23T12:27:59.519Z,77.56
2022-11-23T12:30:32.184Z,77.37
2022-11-23T12:33:04.014Z,77.39
2022-11-23T12:35:33.595Z,77.69
2022-11-23T12:38:06.063Z,77.72
2022-11-23T12:40:38.733Z,77.94
2022-11-23T12:43:13.446Z,77.99
2022-11-23T12:45:45.658Z,77.92
2022-11-23T12:48:34.038Z,78.32
2022-11-23T12:51:00.614Z,78.28
2022-11-23T12:53:27.080Z,78.15
2022-11-23T12:56:11.763Z,78.11
2022-11-23T12:58:38.208Z,77.95
2022-11-23T13:01:34.537Z,78.18
2022-11-23T13:04:10.278Z,77.99
2022-11-23T13:06:36.731Z,78.40
2022-11-23T13:09:03.207Z,78.67
2022-11-23T13:11:39.156Z,78.33
2022-11-23T13:14:14.896Z,78.35
2022-11-23T13:17:00.205Z,78.32
2022-11-23T13:19:33.674Z,78.48
2022-11-23T13:22:00.174Z,78.41
2022-11-23T13:24:27.474Z,78.50
2022-11-23T13:27:12.775Z,78.36
2022-11-23T13:29:51.418Z,78.20
2022-11-23T13:32:36.802Z,78.15
2022-11-23T13:35:03.236Z,78.56
2022-11-23T13:37:29.643Z,77.82
2022-11-23T13:40:00.268Z,77.90
2022-11-23T13:42:26.910Z,78.13
2022-11-23T13:45:29.091Z,78.36
2022-11-23T13:48:04.804Z,78.32
2022-11-23T13:50:35.872Z,78.01
2022-11-23T13:56:31.831Z,77.64
2022-11-23T13:59:18.506Z,76.88
2022-11-23T14:02:03.827Z,77.19
2022-11-23T14:04:31.092Z,77.42
2022-11-23T14:06:59.134Z,77.46
2022-11-23T14:09:31.180Z,77.71
2022-11-23T14:12:03.074Z,77.77
2022-11-23T14:14:49.794Z,77.65
2022-11-23T14:17:16.213Z,78.07
2022-11-23T14:19:48.609Z,77.97
2022-11-23T14:22:33.769Z,78.34
2022-11-23T14:25:03.096Z,78.85
2022-11-23T14:28:08.144Z,78.99
2022-11-23T14:30:34.519Z,79.16
2022-11-23T14:33:04.051Z,79.28
2022-11-23T14:35:33.199Z,79.26
2022-11-23T14:38:18.035Z,79.08
2022-11-23T14:41:03.310Z,79.22
2022-11-23T14:43:29.774Z,78.99
2022-11-23T14:46:03.345Z,78.99
2022-11-23T14:48:33.859Z,78.68
2022-11-23T14:51:04.298Z,78.71
2022-11-23T14:53:35.281Z,78.67
2022-11-23T14:56:01.849Z,78.03
2022-11-23T14:58:29.039Z,78.55
2022-11-23T15:00:58.719Z,78.49
2022-11-23T15:06:14.621Z,79.19
2022-11-23T15:08:52.582Z,79.15
2022-11-23T15:11:21.252Z,79.33
2022-11-23T15:13:48.523Z,79.36
2022-11-23T15:16:15.947Z,79.44
2022-11-23T15:18:42.674Z,79.23
2022-11-23T15:21:12.328Z,79.33
2022-11-23T15:23:40.238Z,79.45
2022-11-23T15:26:12.301Z,79.65
2022-11-23T15:28:38.900Z,79.70
2022-11-23T15:31:24.294Z,79.78
2022-11-23T15:33:51.476Z,80.11
2022-11-23T15:36:18.867Z,80.05
2022-11-23T15:38:45.336Z,80.05
2022-11-23T15:41:11.750Z,80.13
2022-11-23T15:43:38.160Z,80.25
2022-11-23T15:46:05.793Z,80.07
2022-11-23T15:48:33.079Z,80.54
2022-11-23T15:51:00.186Z,80.49
2022-11-23T15:53:27.955Z,80.54
2022-11-23T15:55:54.439Z,80.61
2022-11-23T15:58:21.027Z,80.65
2022-11-23T16:00:51.862Z,80.46
2022-11-23T16:03:24.416Z,80.40
2022-11-23T16:06:09.562Z,80.54
2022-11-23T16:08:36.049Z,80.39
2022-11-23T16:11:02.482Z,80.03
2022-11-23T16:13:35.994Z,79.36
2022-11-23T16:16:02.482Z,78.75
2022-11-23T16:18:31.584Z,78.36
2022-11-23T16:21:01.733Z,77.96
2022-11-23T16:23:29.840Z,77.85
2022-11-23T16:26:03.084Z,78.15
2022-11-23T16:28:30.085Z,78.45
2022-11-23T16:30:57.818Z,78.40
2022-11-23T16:33:24.516Z,78.53
2022-11-23T16:35:51.059Z,78.30
2022-11-23T16:38:19.899Z,78.20
2022-11-23T16:40:48.204Z,78.13
2022-11-23T16:43:14.912Z,78.32
2022-11-23T16:45:44.845Z,78.34
2022-11-23T16:48:26.627Z,78.44
2022-11-23T16:50:53.339Z,78.65
2022-11-23T16:53:19.867Z,78.78
2022-11-23T16:55:46.527Z,78.81
2022-11-23T16:58:14.332Z,79.00
2022-11-23T17:00:40.914Z,78.97
2022-11-23T17:03:11.187Z,78.97
2022-11-23T17:05:37.635Z,78.82
2022-11-23T17:08:04.221Z,78.47
2022-11-23T17:10:30.735Z,78.59
2022-11-23T17:12:57.205Z,78.72
2022-11-23T17:15:23.741Z,78.94
2022-11-23T17:17:50.349Z,78.71
2022-11-23T17:20:16.968Z,78.87
2022-11-23T17:22:43.535Z,79.05
2022-11-23T17:25:14.750Z,78.99
2022-11-23T17:27:42.088Z,78.79
2022-11-23T17:30:13.317Z,78.77
2022-11-23T17:32:39.789Z,78.73
2022-11-23T17:35:06.384Z,78.75
2022-11-23T17:37:32.825Z,78.64
2022-11-23T17:39:59.238Z,78.77
2022-11-23T17:42:25.697Z,78.41
2022-11-23T17:44:52.157Z,78.52
2022-11-23T17:47:25.811Z,78.49
2022-11-23T17:49:52.357Z,78.62
2022-11-23T17:52:18.822Z,78.72
2022-11-23T17:54:45.326Z,78.65
2022-11-23T17:57:15.285Z,78.56
2022-11-23T17:59:41.859Z,78.14
2022-11-23T18:02:08.524Z,78.13
2022-11-23T18:04:35.049Z,78.35
2022-11-23T18:10:35.631Z,78.61
2022-11-23T18:13:02.742Z,78.67
2022-11-23T18:15:30.520Z,78.52
2022-11-23T18:18:01.613Z,78.32
2022-11-23T18:20:30.916Z,78.40
2022-11-23T18:22:57.396Z,78.59
2022-11-23T18:25:23.967Z,78.64
2022-11-23T18:27:50.908Z,78.76
2022-11-23T18:30:17.659Z,78.90
2022-11-23T18:32:44.118Z,78.75
2022-11-23T18:35:10.715Z,78.80
2022-11-23T18:37:37.207Z,78.89
2022-11-23T18:40:03.811Z,78.84
2022-11-23T18:42:30.319Z,78.86
2022-11-23T18:44:56.841Z,78.74
2022-11-23T18:47:24.126Z,78.63
2022-11-23T18:49:50.993Z,78.66
2022-11-23T18:52:17.454Z,78.59
2022-11-23T18:54:44.136Z,78.52
2022-11-23T18:57:11.997Z,78.52
2022-11-23T19:02:24.906Z,78.46
2022-11-23T19:04:51.420Z,78.57
2022-11-23T19:07:22.089Z,78.15
2022-11-23T19:09:51.718Z,78.02
2022-11-23T19:12:18.172Z,78.27
2022-11-23T19:14:49.611Z,78.45
2022-11-23T19:17:16.440Z,78.33
2022-11-23T19:19:42.865Z,78.55
2022-11-23T19:22:09.409Z,78.43
2022-11-23T19:24:35.918Z,78.47
2022-11-23T19:27:02.400Z,77.92
2022-11-23T19:29:28.881Z,77.61
2022-11-23T19:31:55.414Z,77.75
2022-11-23T19:34:22.049Z,77.61
2022-11-23T19:36:48.505Z,78.01
2022-11-23T19:39:15.005Z,78.01
2022-11-23T19:41:41.488Z,77.92
2022-11-23T19:44:08.899Z,77.83
2022-11-23T19:46:35.399Z,77.92
2022-11-23T19:49:41.117Z,77.82
2022-11-23T19:52:07.575Z,77.75
2022-11-23T19:54:34.017Z,77.63
2022-11-23T19:57:00.533Z,77.61
2022-11-23T19:59:27.745Z,77.63
2022-11-23T20:01:54.222Z,77.58
2022-11-23T20:04:20.990Z,76.92
2022-11-23T20:06:47.574Z,77.17
2022-11-23T20:09:19.216Z,77.08
2022-11-23T20:11:50.308Z,76.88
2022-11-23T20:14:17.423Z,77.08
2022-11-23T20:16:43.937Z,76.90
2022-11-23T20:19:10.438Z,77.01
2022-11-23T20:21:36.996Z,77.29
2022-11-23T20:24:05.961Z,77.58
2022-11-23T20:26:32.835Z,77.38
2022-11-23T20:28:59.353Z,77.41
2022-11-23T20:31:26.408Z,77.58
2022-11-23T20:33:53.878Z,77.57
2022-11-23T20:36:21.225Z,77.43
2022-11-23T20:38:47.683Z,77.67
2022-11-23T20:41:17.282Z,77.14
2022-11-23T20:43:43.931Z,77.58
2022-11-23T20:46:10.451Z,77.49
2022-11-23T20:48:37.118Z,77.53
2022-11-23T20:51:10.108Z,77.23
2022-11-23T20:53:48.331Z,77.66
2022-11-23T20:56:15.047Z,77.63
2022-11-23T20:58:41.907Z,77.54
2022-11-23T21:01:10.772Z,77.75
2022-11-23T21:03:37.869Z,77.71
2022-11-23T21:06:09.425Z,77.61
2022-11-23T21:08:36.108Z,77.45
2022-11-23T21:11:30.041Z,77.83
2022-11-23T21:14:15.663Z,77.92
2022-11-23T21:16:53.032Z,77.81
2022-11-23T21:19:20.740Z,77.67
2022-11-23T21:21:47.153Z,77.93
2022-11-23T21:24:13.595Z,77.71
2022-11-23T21:26:40.257Z,77.81
2022-11-23T21:29:11.330Z,77.97
2022-11-23T21:31:38.569Z,77.79
2022-11-23T21:34:05.296Z,78.08
2022-11-23T21:36:37.668Z,78.25
2022-11-23T21:39:04.804Z,78.14
2022-11-23T21:41:31.276Z,78.35
2022-11-23T21:43:57.774Z,78.48
2022-11-23T21:46:24.711Z,78.56
2022-11-23T21:48:51.980Z,78.50
2022-11-23T21:51:18.454Z,78.52
2022-11-23T21:53:44.937Z,78.75
2022-11-23T21:56:15.180Z,78.49
2022-11-23T21:58:41.841Z,78.63
2022-11-23T22:01:09.401Z,78.37
2022-11-23T22:03:36.689Z,78.69
2022-11-23T22:06:03.226Z,78.53
2022-11-23T22:08:30.033Z,78.45
2022-11-23T22:10:56.638Z,78.36
2022-11-23T22:13:28.805Z,78.41
2022-11-23T22:15:58.235Z,78.69
2022-11-23T22:18:24.811Z,78.32
2022-11-23T22:20:52.163Z,78.34
2022-11-23T22:23:18.644Z,77.95
2022-11-23T22:25:48.176Z,77.95
2022-11-23T22:28:14.838Z,78.24
2022-11-23T22:30:41.533Z,78.16
2022-11-23T22:33:08.048Z,77.94
2022-11-23T22:35:34.734Z,77.72
2022-11-23T22:38:01.293Z,77.79
2022-11-23T22:40:32.786Z,77.17
2022-11-23T22:42:59.824Z,76.70
2022-11-23T22:45:26.625Z,76.18
2022-11-23T22:47:53.227Z,76.38
2022-11-23T22:50:19.758Z,75.97
2022-11-23T22:52:46.653Z,76.14
2022-11-23T22:55:13.214Z,76.11
2022-11-23T22:57:39.663Z,76.40
2022-11-23T23:00:10.899Z,76.54
2022-11-23T23:02:37.549Z,76.65
2022-11-23T23:05:04.216Z,76.61
2022-11-23T23:07:31.556Z,76.88
2022-11-23T23:09:58.059Z,77.35
2022-11-23T23:12:24.514Z,77.52
2022-11-23T23:14:51.005Z,77.41
2022-11-23T23:17:17.722Z,77.53
2022-11-23T23:19:44.189Z,77.56
2022-11-23T23:22:10.672Z,77.88
2022-11-23T23:24:37.208Z,77.84
2022-11-23T23:27:03.717Z,78.43
2022-11-23T23:29:30.999Z,78.45
2022-11-23T23:31:57.746Z,78.24
2022-11-23T23:34:24.218Z,78.44
2022-11-23T23:36:50.934Z,78.69
2022-11-23T23:39:17.447Z,78.86
2022-11-23T23:41:43.907Z,78.69
2022-11-23T23:44:10.494Z,79.06
2022-11-23T23:46:37.039Z,79.23
2022-11-23T23:49:03.491Z,79.39
2022-11-23T23:51:30.201Z,79.67
2022-11-23T23:53:57.152Z,79.51
2022-11-23T23:56:24.431Z,79.65
2022-11-23T23:58:51.032Z,79.73
